Choix d'un mois et d'une année:    

Climatologie mensuelle : Mai 2020

Jour Température Vent Pluie Humidité Pression Radiations solaires
min moy max moyen rafale Secteur Max (W/m²) Durée
01/05/2020 8.2 11.1 16.9 9.7 36 ESE 0 82.9 1005.3 831.6 1h40
02/05/2020 5.7 10.5 15.4 8.9 52 SSO 0 72.3 1012.8 963.6 7h10
03/05/2020 2.1 12.3 20.3 3.1 21.6 ESE 0 69.9 1018.7 1017.7 2h40
04/05/2020 9.5 15.2 21.4 7.3 32 E 0 74 1017.6 969.7 3h15
05/05/2020 7.6 12.6 18.7 7.1 28 N 0 64.8 1018.6 999.7 5h05
06/05/2020 4.8 13 19.1 6.8 33.6 N 0 48.6 1023.6 891.6 13h50
07/05/2020 2.6 14.9 26.3 3.7 19.2 N 0 53.6 1023.3 915.6 12h25
08/05/2020 5.7 18.2 28.9 2.8 14.4 SSE 0 54.7 1017.6 1005.7 8h15
09/05/2020 12.7 15.9 22.8 3 14.4 N 3.6 85.4 1013 1023.7 2h15
10/05/2020 12.6 19.1 27.2 4.8 21.6 ONO 3.6 78 1006.3 987.7 6h20
11/05/2020 4.3 7.3 15.3 8.8 40 E 3.6 91.8 1008.5 345.2 1h45
12/05/2020 0.9 9 15.2 4.5 23.2 N 0 66.7 1018 939.6 7h45
13/05/2020 3.5 10.9 16.3 6.7 29.6 O 0 63.3 1012 918.6 2h25
14/05/2020 5.8 11.5 16.9 8.2 28.8 NO 0 61.1 1016 954.6 5h55
15/05/2020 6.1 13.4 20.7 6.9 26.4 OSO 0 53.8 1019 942.6 14h15
16/05/2020 3.6 14.2 22.5 3.8 18.4 O 0 55.2 1022.6 921.6 12h00
17/05/2020 5.9 14.5 22 4.6 22.4 O 0 57.3 1024.3 918.6 14h00
18/05/2020 6.5 17.7 25.2 4.4 24 N 0 58.2 1024.6 939.6 12h45
19/05/2020 8 19.9 27.5 4.3 23.2 SSO 0 52.6 1022.4 933.6 14h05
20/05/2020 11.2 20.9 28.7 4.7 21.6 ONO 0 61.4 1021.4 993.7 12h35
21/05/2020 12.1 22.5 31.2 3.4 16 O 0 60.5 1021.6 930.6 11h40
22/05/2020 13.1 21.6 28.8 6.9 32 SSE 0 68.7 1021 954.6 1h25
23/05/2020 9.3 13.4 17.6 6.3 30.4 SO 5.7 79.7 1026.9 591.4 0h45
24/05/2020 7 13.6 19.4 7.7 30.4 SSO 0 74.3 1032.2 1023.7 6h55
25/05/2020 7.1 16 22.2 4.2 22.4 NO 0 70.5 1033.8 1125.8 7h30
26/05/2020 8.1 17.5 24.9 6.1 25.6 N 0 62.7 1034.1 951.6 12h35
27/05/2020 9.2 18.9 26.5 4.3 32 N 0 55.6 1032.7 942.6 14h00
28/05/2020 13.4 19 25.2 6.3 25.6 NO 0 55.7 1029.3 1050.7 9h00
Moyennes 7.4 15.2 22.3 5.7 - - - 65.5 1020.6 928 -
Total - - - - - - 16.5 - - - 224h15


Nombre de jours
Pluie Gel Chaleur
avec pluie : 4 avec gelée : 0 avec chaleur (>=30): 1
avec plus de 1mm : 4 avec forte gelée (<=-5): 0 avec canicule (>=35): 0
avec plus de 5mm : 1 sans dégel : 0
avec plus de 10mm : 0

Répartition des vents
Direction Fréquence
N 12.9
NNE 0
NE 4.5
ENE 0
E 3.7
ESE 4.9
SE 2.4
SSE 5.2
S 6.6
SSO 6.9
SO 6.5
OSO 10.3
SSO 12.2
ONO 10.4
NO 8.7
NNO 4.8

Radiations solaires mensuelles : Mai 2020

Jour Ciel limpide Ciel laiteux Ciel nuageux Ciel couvert Durée
Durée % Durée % Durée % Durée % du jour
01/05/2020 1h40 11.4 0h25 2.8 2h05 14.2 9h40 65.8 14h41
02/05/2020 7h10 48.6 1h00 6.8 3h05 20.9 2h20 15.8 14h44
03/05/2020 2h40 18 2h15 15.2 5h35 37.8 3h25 23.1 14h47
04/05/2020 3h15 21.9 1h30 10.1 6h20 42.7 2h55 19.7 14h50
05/05/2020 5h05 34.2 1h00 6.7 3h40 24.6 4h15 28.6 14h53
06/05/2020 13h50 92.6 0h00 0 0h10 1.1 0h00 0 14h56
07/05/2020 12h25 82.9 0h30 3.3 0h50 5.6 0h20 2.2 14h59
08/05/2020 8h15 54.9 3h00 20 2h45 18.3 0h10 1.1 15h02
09/05/2020 2h15 14.9 0h20 2.2 1h50 12.2 9h45 64.6 15h05
10/05/2020 6h20 41.9 2h10 14.3 2h05 13.8 3h35 23.7 15h08
11/05/2020 1h45 11.5 0h10 1.1 0h40 4.4 11h35 76.3 15h11
12/05/2020 7h45 50.9 2h15 14.8 4h20 28.4 0h00 0 15h14
13/05/2020 2h25 15.8 1h15 8.2 8h00 52.3 2h35 16.9 15h17
14/05/2020 5h55 38.6 1h40 10.9 3h30 22.9 3h20 21.8 15h19
15/05/2020 14h15 92.7 0h15 1.6 0h00 0 0h00 0 15h22
16/05/2020 12h00 77.8 0h55 5.9 1h15 8.1 0h20 2.2 15h25
17/05/2020 14h00 90.6 0h10 1.1 0h20 2.2 0h00 0 15h27
18/05/2020 12h45 82.3 1h00 6.5 0h50 5.4 0h00 0 15h30
19/05/2020 14h05 90.7 0h10 1.1 0h25 2.7 0h00 0 15h32
20/05/2020 12h35 80.7 0h55 5.9 0h55 5.9 0h10 1.1 15h35
21/05/2020 11h40 74.7 1h45 11.2 1h00 6.4 0h15 1.6 15h37
22/05/2020 1h25 9.1 1h00 6.4 8h10 52.2 4h10 26.6 15h39
23/05/2020 0h45 4.8 0h15 1.6 3h55 24.9 9h50 62.6 15h42
24/05/2020 6h55 44 3h20 21.2 3h00 19.1 1h35 10.1 15h44
25/05/2020 7h30 47.6 1h15 7.9 3h25 21.7 2h35 16.4 15h46
26/05/2020 12h35 79.6 0h55 5.8 1h00 6.3 0h20 2.1 15h48
27/05/2020 14h00 88.4 0h10 1.1 0h45 4.7 0h00 0 15h50
28/05/2020 9h00 56.7 1h00 6.3 3h05 19.4 1h50 11.6 15h52
Total 224h15 52.1 30h35 7.4 73h00 17.7 75h00 18.3 -